Аэропорт: Владикавказ (Беслан). Владикавказ

ICAO: URMO

METAR:
2021-01-27 03:30:00
URMO 270330Z AUTO 10002MPS 9999 // NCD M05/M06 Q1013 RMK QFE717/0956
METAR:
Информация по данной станции не доступна